EWG71L EDDK-GCLP
Flight info
| Callsign | EWG71L |
|---|---|
| Flight time | 4h 27m |
| Altitude | 37000 |
| Route | NVO2K NVO Y868 SOGRI UM617 CIV N872 MEDIL DCT KOVIN DCT NIDUV DCT KIHVI UN872 ERIGA UZ218 FUJTI DCT BAKUP DCT BATAX DCT GANSU DCT BEXAL DCT SAMAR |
| Aircraft | A320/M-SDE3FGHIRWY/LB1 |
Departure
| Time | 2026-05-05 07:27 |
|---|---|
| Airport | Cologne Bonn Airport (EDDK) |
Arrival
| Time | 2026-05-05 11:54 |
|---|---|
| Airport | Gran Canaria Airport (GCLP) |
| Time | Latitude | Longitude | Altitude | Speed | Heading |
|---|---|---|---|---|---|
| 2026-05-05 06:58 | 50.87835 | 7.12418 | 235 ft | 0 kts | 285° |
| 2026-05-05 07:16 | 50.87829 | 7.12452 | 237 ft | 4 kts | 285° |
| 2026-05-05 07:16 | 50.87822 | 7.12493 | 234 ft | 4 kts | 284° |
| 2026-05-05 07:17 | 50.87818 | 7.12534 | 233 ft | 4 kts | 265° |
| 2026-05-05 07:17 | 50.87825 | 7.12573 | 235 ft | 4 kts | 223° |
| 2026-05-05 07:17 | 50.87837 | 7.12585 | 238 ft | 1 kts | 198° |
| 2026-05-05 07:17 | 50.87838 | 7.12586 | 238 ft | 0 kts | 198° |
| 2026-05-05 07:20 | 50.87824 | 7.12579 | 235 ft | 7 kts | 198° |
| 2026-05-05 07:20 | 50.87752 | 7.12543 | 233 ft | 13 kts | 197° |
| 2026-05-05 07:21 | 50.87674 | 7.12505 | 232 ft | 11 kts | 198° |
| 2026-05-05 07:21 | 50.87580 | 7.12457 | 231 ft | 18 kts | 198° |
| 2026-05-05 07:21 | 50.87449 | 7.12385 | 226 ft | 21 kts | 200° |
| 2026-05-05 07:21 | 50.87308 | 7.12313 | 228 ft | 21 kts | 198° |
| 2026-05-05 07:22 | 50.87185 | 7.12240 | 235 ft | 17 kts | 207° |
| 2026-05-05 07:22 | 50.87090 | 7.12127 | 234 ft | 17 kts | 224° |
| 2026-05-05 07:22 | 50.86990 | 7.12054 | 237 ft | 16 kts | 189° |
| 2026-05-05 07:22 | 50.86874 | 7.12079 | 233 ft | 19 kts | 167° |
| 2026-05-05 07:23 | 50.86733 | 7.12133 | 236 ft | 21 kts | 166° |
| 2026-05-05 07:23 | 50.86585 | 7.12194 | 232 ft | 23 kts | 163° |
| 2026-05-05 07:23 | 50.86432 | 7.12255 | 232 ft | 23 kts | 165° |
| 2026-05-05 07:23 | 50.86299 | 7.12308 | 236 ft | 14 kts | 168° |
| 2026-05-05 07:24 | 50.86248 | 7.12324 | 239 ft | 4 kts | 169° |
| 2026-05-05 07:24 | 50.86239 | 7.12327 | 239 ft | 0 kts | 168° |
| 2026-05-05 07:24 | 50.86234 | 7.12328 | 240 ft | 0 kts | 168° |
| 2026-05-05 07:25 | 50.86244 | 7.12325 | 239 ft | 5 kts | 168° |
| 2026-05-05 07:25 | 50.86256 | 7.12321 | 239 ft | 2 kts | 165° |
| 2026-05-05 07:25 | 50.86239 | 7.12375 | 221 ft | 9 kts | 126° |
| 2026-05-05 07:25 | 50.86164 | 7.12426 | 243 ft | 15 kts | 160° |
| 2026-05-05 07:26 | 50.86058 | 7.12514 | 246 ft | 10 kts | 114° |
| 2026-05-05 07:26 | 50.86077 | 7.12597 | 247 ft | 7 kts | 63° |
| 2026-05-05 07:26 | 50.86100 | 7.12669 | 247 ft | 12 kts | 63° |
| 2026-05-05 07:26 | 50.86212 | 7.13037 | 250 ft | 72 kts | 65° |
| 2026-05-05 07:27 | 50.86527 | 7.14075 | 257 ft | 134 kts | 64° |
| 2026-05-05 07:27 | 50.86976 | 7.15556 | 507 ft | 159 kts | 64° |
| 2026-05-05 07:27 | 50.87475 | 7.17191 | 1081 ft | 168 kts | 65° |
| 2026-05-05 07:27 | 50.87990 | 7.18942 | 1368 ft | 188 kts | 66° |
| 2026-05-05 07:28 | 50.88570 | 7.20939 | 1541 ft | 212 kts | 66° |
| 2026-05-05 07:28 | 50.89225 | 7.23196 | 1781 ft | 237 kts | 65° |
| 2026-05-05 07:28 | 50.89946 | 7.25666 | 2158 ft | 256 kts | 66° |
| 2026-05-05 07:28 | 50.90707 | 7.28268 | 2837 ft | 263 kts | 66° |
| 2026-05-05 07:29 | 50.91482 | 7.30917 | 3603 ft | 267 kts | 66° |
| 2026-05-05 07:29 | 50.92413 | 7.33481 | 4341 ft | 272 kts | 49° |
| 2026-05-05 07:29 | 50.93920 | 7.35308 | 5058 ft | 277 kts | 23° |
| 2026-05-05 07:29 | 50.95802 | 7.35927 | 5780 ft | 280 kts | 356° |
| 2026-05-05 07:30 | 50.97673 | 7.35165 | 6517 ft | 281 kts | 329° |
| 2026-05-05 07:30 | 50.99898 | 7.30344 | 7886 ft | 279 kts | 277° |
| 2026-05-05 07:30 | 50.99836 | 7.27291 | 8554 ft | 280 kts | 257° |
| 2026-05-05 07:31 | 50.99606 | 7.25273 | 9021 ft | 282 kts | 261° |
| 2026-05-05 07:31 | 50.99323 | 7.22168 | 9731 ft | 285 kts | 258° |
| 2026-05-05 07:31 | 50.98906 | 7.19062 | 10126 ft | 298 kts | 255° |
| 2026-05-05 07:31 | 50.98374 | 7.15744 | 10259 ft | 320 kts | 254° |
| 2026-05-05 07:32 | 50.97766 | 7.12214 | 10391 ft | 342 kts | 253° |
| 2026-05-05 07:32 | 50.97116 | 7.08502 | 10750 ft | 355 kts | 253° |
| 2026-05-05 07:32 | 50.96459 | 7.04713 | 11369 ft | 360 kts | 254° |
| 2026-05-05 07:32 | 50.95797 | 7.00856 | 11985 ft | 363 kts | 254° |
| 2026-05-05 07:33 | 50.95137 | 6.96970 | 12616 ft | 366 kts | 254° |
| 2026-05-05 07:33 | 50.94477 | 6.93059 | 13212 ft | 369 kts | 254° |
| 2026-05-05 07:33 | 50.93810 | 6.89109 | 13788 ft | 372 kts | 254° |
| 2026-05-05 07:33 | 50.93137 | 6.85121 | 14291 ft | 376 kts | 254° |
| 2026-05-05 07:34 | 50.92461 | 6.81108 | 14808 ft | 378 kts | 254° |
| 2026-05-05 07:34 | 50.91774 | 6.77061 | 15330 ft | 382 kts | 254° |
| 2026-05-05 07:34 | 50.91078 | 6.72994 | 15829 ft | 385 kts | 254° |
| 2026-05-05 07:34 | 50.90372 | 6.68885 | 16332 ft | 388 kts | 254° |
| 2026-05-05 07:35 | 50.89659 | 6.64744 | 16829 ft | 391 kts | 254° |
| 2026-05-05 07:35 | 50.88940 | 6.60575 | 17331 ft | 394 kts | 254° |
| 2026-05-05 07:35 | 50.88225 | 6.56419 | 17803 ft | 398 kts | 254° |
| 2026-05-05 07:35 | 50.87496 | 6.52183 | 18280 ft | 401 kts | 255° |
| 2026-05-05 07:36 | 50.86757 | 6.47904 | 18724 ft | 404 kts | 254° |
| 2026-05-05 07:36 | 50.86009 | 6.43599 | 19193 ft | 406 kts | 254° |
| 2026-05-05 07:36 | 50.85256 | 6.39283 | 19658 ft | 409 kts | 254° |
| 2026-05-05 07:36 | 50.84496 | 6.34935 | 20086 ft | 411 kts | 254° |
| 2026-05-05 07:37 | 50.83731 | 6.30572 | 20521 ft | 413 kts | 254° |
| 2026-05-05 07:37 | 50.82961 | 6.26183 | 20936 ft | 415 kts | 254° |
| 2026-05-05 07:37 | 50.82187 | 6.21783 | 21334 ft | 417 kts | 254° |
| 2026-05-05 07:37 | 50.81409 | 6.17356 | 21756 ft | 419 kts | 254° |
| 2026-05-05 07:38 | 50.80627 | 6.12909 | 22167 ft | 421 kts | 254° |
| 2026-05-05 07:38 | 50.79837 | 6.08436 | 22551 ft | 423 kts | 254° |
| 2026-05-05 07:38 | 50.79042 | 6.03942 | 22919 ft | 425 kts | 253° |
| 2026-05-05 07:38 | 50.78239 | 5.99433 | 23264 ft | 427 kts | 253° |
| 2026-05-05 07:39 | 50.77429 | 5.94907 | 23571 ft | 429 kts | 253° |
| 2026-05-05 07:39 | 50.76616 | 5.90376 | 23877 ft | 430 kts | 253° |
| 2026-05-05 07:39 | 50.75799 | 5.85821 | 24190 ft | 431 kts | 253° |
| 2026-05-05 07:39 | 50.74981 | 5.81262 | 24504 ft | 432 kts | 253° |
| 2026-05-05 07:40 | 50.74162 | 5.76698 | 24800 ft | 432 kts | 253° |
| 2026-05-05 07:40 | 50.73338 | 5.72126 | 25100 ft | 433 kts | 253° |
| 2026-05-05 07:40 | 50.72509 | 5.67551 | 25402 ft | 434 kts | 253° |
| 2026-05-05 07:40 | 50.71678 | 5.62980 | 25688 ft | 434 kts | 252° |
| 2026-05-05 07:41 | 50.70844 | 5.58396 | 25962 ft | 435 kts | 252° |
| 2026-05-05 07:41 | 50.70008 | 5.53807 | 26233 ft | 436 kts | 252° |
| 2026-05-05 07:41 | 50.69168 | 5.49213 | 26504 ft | 436 kts | 252° |
| 2026-05-05 07:41 | 50.68343 | 5.44721 | 26751 ft | 437 kts | 252° |
| 2026-05-05 07:42 | 50.67544 | 5.40390 | 26983 ft | 438 kts | 252° |
| 2026-05-05 07:42 | 50.66688 | 5.35776 | 27221 ft | 438 kts | 252° |
| 2026-05-05 07:42 | 50.65836 | 5.31176 | 27448 ft | 439 kts | 252° |
| 2026-05-05 07:42 | 50.64980 | 5.26545 | 27675 ft | 440 kts | 252° |
| 2026-05-05 07:43 | 50.64124 | 5.21921 | 27915 ft | 440 kts | 252° |
| 2026-05-05 07:43 | 50.63265 | 5.17284 | 28145 ft | 441 kts | 251° |
| 2026-05-05 07:43 | 50.62404 | 5.12649 | 28450 ft | 440 kts | 251° |
| 2026-05-05 07:43 | 50.61546 | 5.08039 | 28824 ft | 438 kts | 251° |
| 2026-05-05 07:44 | 50.60689 | 5.03448 | 29140 ft | 436 kts | 251° |
| 2026-05-05 07:44 | 50.59832 | 4.98880 | 29435 ft | 434 kts | 251° |
| 2026-05-05 07:44 | 50.58971 | 4.94335 | 29729 ft | 433 kts | 251° |
| 2026-05-05 07:44 | 50.58107 | 4.89811 | 30015 ft | 431 kts | 251° |
| 2026-05-05 07:45 | 50.57246 | 4.85304 | 30249 ft | 430 kts | 250° |
| 2026-05-05 07:45 | 50.56388 | 4.80798 | 30489 ft | 429 kts | 250° |
| 2026-05-05 07:45 | 50.55537 | 4.76317 | 30719 ft | 428 kts | 250° |
| 2026-05-05 07:45 | 50.54687 | 4.71842 | 30942 ft | 426 kts | 250° |
| 2026-05-05 07:46 | 50.53838 | 4.67387 | 31176 ft | 425 kts | 250° |
| 2026-05-05 07:46 | 50.52986 | 4.62937 | 31396 ft | 424 kts | 250° |
| 2026-05-05 07:46 | 50.52132 | 4.58498 | 31629 ft | 424 kts | 250° |
| 2026-05-05 07:46 | 50.51281 | 4.54082 | 31849 ft | 423 kts | 250° |
| 2026-05-05 07:47 | 50.50426 | 4.49665 | 32065 ft | 422 kts | 249° |
| 2026-05-05 07:47 | 50.49572 | 4.45261 | 32283 ft | 421 kts | 249° |
| 2026-05-05 07:47 | 50.48721 | 4.40858 | 32491 ft | 421 kts | 249° |
| 2026-05-05 07:47 | 50.47884 | 4.36533 | 32695 ft | 420 kts | 249° |
| 2026-05-05 07:48 | 50.47033 | 4.32151 | 32896 ft | 420 kts | 249° |
| 2026-05-05 07:48 | 50.46179 | 4.27768 | 33098 ft | 419 kts | 249° |
| 2026-05-05 07:48 | 50.45325 | 4.23395 | 33306 ft | 419 kts | 249° |
| 2026-05-05 07:48 | 50.44471 | 4.19038 | 33500 ft | 418 kts | 249° |
| 2026-05-05 07:49 | 50.43612 | 4.14683 | 33696 ft | 418 kts | 249° |
| 2026-05-05 07:49 | 50.42753 | 4.10334 | 33902 ft | 417 kts | 249° |
| 2026-05-05 07:49 | 50.41893 | 4.05977 | 34050 ft | 417 kts | 249° |
| 2026-05-05 07:49 | 50.41034 | 4.01636 | 34186 ft | 418 kts | 249° |
| 2026-05-05 07:50 | 50.40170 | 3.97279 | 34324 ft | 418 kts | 249° |
| 2026-05-05 07:50 | 50.39304 | 3.92927 | 34450 ft | 419 kts | 249° |
| 2026-05-05 07:50 | 50.38437 | 3.88569 | 34580 ft | 419 kts | 249° |
| 2026-05-05 07:50 | 50.37563 | 3.84208 | 34704 ft | 420 kts | 249° |
| 2026-05-05 07:51 | 50.36686 | 3.79847 | 34826 ft | 420 kts | 249° |
| 2026-05-05 07:51 | 50.35714 | 3.75537 | 34952 ft | 418 kts | 242° |
| 2026-05-05 07:51 | 50.34304 | 3.71589 | 35078 ft | 414 kts | 232° |
| 2026-05-05 07:51 | 50.32471 | 3.68140 | 35201 ft | 412 kts | 222° |
| 2026-05-05 07:52 | 50.30274 | 3.65301 | 35326 ft | 410 kts | 212° |
| 2026-05-05 07:52 | 50.27783 | 3.63144 | 35447 ft | 409 kts | 203° |
| 2026-05-05 07:52 | 50.25164 | 3.61397 | 35573 ft | 409 kts | 203° |
| 2026-05-05 07:52 | 50.22548 | 3.59641 | 35698 ft | 409 kts | 203° |
| 2026-05-05 07:53 | 50.19936 | 3.57881 | 35817 ft | 409 kts | 203° |
| 2026-05-05 07:53 | 50.17325 | 3.56116 | 35951 ft | 409 kts | 204° |
| 2026-05-05 07:53 | 50.14750 | 3.54378 | 36070 ft | 409 kts | 203° |
| 2026-05-05 07:53 | 50.12145 | 3.52626 | 36195 ft | 408 kts | 203° |
| 2026-05-05 07:54 | 50.09531 | 3.50877 | 36330 ft | 408 kts | 203° |
| 2026-05-05 07:54 | 50.06922 | 3.49136 | 36453 ft | 407 kts | 203° |
| 2026-05-05 07:54 | 50.04320 | 3.47399 | 36574 ft | 407 kts | 203° |
| 2026-05-05 07:54 | 50.01720 | 3.45662 | 36716 ft | 406 kts | 203° |
| 2026-05-05 07:55 | 49.99136 | 3.43939 | 36871 ft | 405 kts | 203° |
| 2026-05-05 07:55 | 49.96543 | 3.42209 | 36906 ft | 406 kts | 203° |
| 2026-05-05 07:55 | 49.91323 | 3.38736 | 36905 ft | 411 kts | 203° |
| 2026-05-05 07:56 | 49.86027 | 3.35232 | 36905 ft | 415 kts | 203° |
| 2026-05-05 07:56 | 49.80687 | 3.31712 | 36904 ft | 419 kts | 203° |
| 2026-05-05 07:57 | 49.75312 | 3.28171 | 36908 ft | 420 kts | 203° |
| 2026-05-05 07:57 | 49.69926 | 3.24621 | 36901 ft | 421 kts | 203° |
| 2026-05-05 07:58 | 49.64573 | 3.21100 | 36910 ft | 421 kts | 202° |
| 2026-05-05 07:58 | 49.59142 | 3.17533 | 36911 ft | 422 kts | 202° |
| 2026-05-05 07:59 | 49.53770 | 3.14023 | 36919 ft | 422 kts | 203° |
| 2026-05-05 07:59 | 49.48856 | 3.09150 | 36911 ft | 424 kts | 222° |
| 2026-05-05 08:00 | 49.45338 | 3.01881 | 36909 ft | 428 kts | 238° |
| 2026-05-05 08:00 | 49.42404 | 2.93924 | 36909 ft | 428 kts | 238° |
| 2026-05-05 08:01 | 49.39444 | 2.85983 | 36905 ft | 429 kts | 238° |
| 2026-05-05 08:01 | 49.36471 | 2.78044 | 36905 ft | 429 kts | 237° |
| 2026-05-05 08:02 | 49.33508 | 2.70097 | 36909 ft | 430 kts | 238° |
| 2026-05-05 08:02 | 49.30662 | 2.62037 | 36908 ft | 430 kts | 239° |
| 2026-05-05 08:03 | 49.27869 | 2.53947 | 36904 ft | 430 kts | 239° |
| 2026-05-05 08:03 | 49.25037 | 2.45867 | 36907 ft | 430 kts | 239° |
| 2026-05-05 08:04 | 49.22181 | 2.37813 | 36905 ft | 431 kts | 239° |
| 2026-05-05 08:04 | 49.19328 | 2.29830 | 36897 ft | 431 kts | 238° |
| 2026-05-05 08:05 | 49.16400 | 2.21848 | 36897 ft | 431 kts | 238° |
| 2026-05-05 08:05 | 49.13439 | 2.13892 | 36898 ft | 431 kts | 238° |
| 2026-05-05 08:06 | 49.10476 | 2.05943 | 36899 ft | 432 kts | 238° |
| 2026-05-05 08:06 | 49.07833 | 1.97706 | 36899 ft | 433 kts | 243° |
| 2026-05-05 08:07 | 49.05325 | 1.89352 | 36899 ft | 434 kts | 243° |
| 2026-05-05 08:07 | 49.02809 | 1.80988 | 36896 ft | 434 kts | 242° |
| 2026-05-05 08:08 | 49.00281 | 1.72629 | 36896 ft | 435 kts | 242° |
| 2026-05-05 08:08 | 48.97739 | 1.64267 | 36892 ft | 435 kts | 242° |
| 2026-05-05 08:09 | 48.95193 | 1.55902 | 36892 ft | 436 kts | 242° |
| 2026-05-05 08:09 | 48.92636 | 1.47533 | 36891 ft | 437 kts | 242° |
| 2026-05-05 08:10 | 48.90070 | 1.39161 | 36892 ft | 437 kts | 242° |
| 2026-05-05 08:10 | 48.87488 | 1.30804 | 36880 ft | 437 kts | 242° |
| 2026-05-05 08:11 | 48.84910 | 1.22455 | 36877 ft | 437 kts | 242° |
| 2026-05-05 08:11 | 48.82323 | 1.14089 | 36891 ft | 438 kts | 242° |
| 2026-05-05 08:12 | 48.79728 | 1.05719 | 36887 ft | 439 kts | 242° |
| 2026-05-05 08:12 | 48.77113 | 0.97344 | 36898 ft | 440 kts | 242° |
| 2026-05-05 08:13 | 48.74460 | 0.88995 | 36898 ft | 439 kts | 238° |
| 2026-05-05 08:13 | 48.71306 | 0.81101 | 36900 ft | 438 kts | 236° |
| 2026-05-05 08:14 | 48.68126 | 0.73230 | 36899 ft | 439 kts | 236° |
| 2026-05-05 08:14 | 48.64936 | 0.65354 | 36895 ft | 439 kts | 236° |
| 2026-05-05 08:15 | 48.61757 | 0.57542 | 36899 ft | 440 kts | 236° |
| 2026-05-05 08:15 | 48.58545 | 0.49675 | 36898 ft | 440 kts | 236° |
| 2026-05-05 08:16 | 48.55323 | 0.41817 | 36900 ft | 440 kts | 236° |
| 2026-05-05 08:16 | 48.52091 | 0.33961 | 36894 ft | 440 kts | 236° |
| 2026-05-05 08:17 | 48.48856 | 0.26113 | 36900 ft | 441 kts | 236° |
| 2026-05-05 08:17 | 48.45611 | 0.18273 | 36899 ft | 441 kts | 235° |
| 2026-05-05 08:18 | 48.42366 | 0.10446 | 36905 ft | 441 kts | 235° |
| 2026-05-05 08:18 | 48.39111 | 0.02622 | 36899 ft | 441 kts | 235° |
| 2026-05-05 08:19 | 48.35843 | -0.05180 | 36901 ft | 440 kts | 234° |
| 2026-05-05 08:19 | 48.32299 | -0.12670 | 36900 ft | 439 kts | 230° |
| 2026-05-05 08:20 | 48.28566 | -0.19945 | 36901 ft | 440 kts | 230° |
| 2026-05-05 08:20 | 48.24868 | -0.27173 | 36897 ft | 440 kts | 230° |
| 2026-05-05 08:21 | 48.21143 | -0.34490 | 36898 ft | 441 kts | 230° |
| 2026-05-05 08:21 | 48.17407 | -0.41792 | 36894 ft | 441 kts | 230° |
| 2026-05-05 08:22 | 48.13670 | -0.49079 | 36895 ft | 442 kts | 230° |
| 2026-05-05 08:22 | 48.09921 | -0.56379 | 36899 ft | 442 kts | 230° |
| 2026-05-05 08:23 | 48.06161 | -0.63676 | 36905 ft | 443 kts | 230° |
| 2026-05-05 08:23 | 48.02393 | -0.70972 | 36904 ft | 444 kts | 230° |
| 2026-05-05 08:24 | 47.99253 | -0.77036 | 36905 ft | 444 kts | 230° |
| 2026-05-05 08:24 | 47.95470 | -0.84316 | 36909 ft | 444 kts | 230° |
| 2026-05-05 08:25 | 47.91676 | -0.91596 | 36908 ft | 445 kts | 230° |
| 2026-05-05 08:25 | 47.87876 | -0.98879 | 36908 ft | 445 kts | 230° |
| 2026-05-05 08:26 | 47.84082 | -1.06147 | 36905 ft | 445 kts | 230° |
| 2026-05-05 08:26 | 47.80277 | -1.13411 | 36904 ft | 445 kts | 230° |
| 2026-05-05 08:27 | 47.76455 | -1.20675 | 36903 ft | 446 kts | 230° |
| 2026-05-05 08:27 | 47.72624 | -1.27919 | 36905 ft | 446 kts | 230° |
| 2026-05-05 08:28 | 47.68811 | -1.35106 | 36914 ft | 446 kts | 230° |
| 2026-05-05 08:28 | 47.64973 | -1.42345 | 36915 ft | 447 kts | 230° |
| 2026-05-05 08:29 | 47.61123 | -1.49582 | 36916 ft | 447 kts | 230° |
| 2026-05-05 08:30 | 47.55091 | -1.60097 | 36917 ft | 446 kts | 226° |
| 2026-05-05 08:30 | 47.50877 | -1.66833 | 36924 ft | 447 kts | 225° |
| 2026-05-05 08:31 | 47.46672 | -1.73605 | 36925 ft | 447 kts | 226° |
| 2026-05-05 08:31 | 47.42503 | -1.80429 | 36931 ft | 447 kts | 226° |
| 2026-05-05 08:32 | 47.38342 | -1.87260 | 36941 ft | 448 kts | 226° |
| 2026-05-05 08:32 | 47.33904 | -1.93657 | 36936 ft | 445 kts | 214° |
| 2026-05-05 08:33 | 47.28657 | -1.98474 | 36943 ft | 445 kts | 210° |
| 2026-05-05 08:33 | 47.23399 | -2.03169 | 36941 ft | 445 kts | 210° |
| 2026-05-05 08:34 | 47.18105 | -2.07896 | 36934 ft | 446 kts | 210° |
| 2026-05-05 08:34 | 47.12800 | -2.12619 | 36937 ft | 446 kts | 210° |
| 2026-05-05 08:35 | 47.07487 | -2.17332 | 36942 ft | 446 kts | 210° |
| 2026-05-05 08:35 | 47.02170 | -2.22044 | 36943 ft | 447 kts | 210° |
| 2026-05-05 08:36 | 46.96845 | -2.26757 | 36950 ft | 447 kts | 210° |
| 2026-05-05 08:36 | 46.91521 | -2.31454 | 36947 ft | 447 kts | 210° |
| 2026-05-05 08:37 | 46.86186 | -2.36143 | 36944 ft | 448 kts | 210° |
| 2026-05-05 08:37 | 46.80845 | -2.40825 | 36950 ft | 448 kts | 210° |
| 2026-05-05 08:38 | 46.75502 | -2.45507 | 36959 ft | 448 kts | 210° |
| 2026-05-05 08:38 | 46.70160 | -2.50191 | 36953 ft | 448 kts | 210° |
| 2026-05-05 08:39 | 46.64812 | -2.54858 | 36957 ft | 448 kts | 210° |
| 2026-05-05 08:39 | 46.59459 | -2.59525 | 36959 ft | 448 kts | 210° |
| 2026-05-05 08:40 | 46.54106 | -2.64173 | 36967 ft | 448 kts | 210° |
| 2026-05-05 08:40 | 46.48754 | -2.68803 | 36964 ft | 448 kts | 210° |
| 2026-05-05 08:41 | 46.43436 | -2.73407 | 36958 ft | 448 kts | 210° |
| 2026-05-05 08:41 | 46.38086 | -2.78027 | 36965 ft | 448 kts | 210° |
| 2026-05-05 08:42 | 46.32732 | -2.82635 | 36960 ft | 448 kts | 210° |
| 2026-05-05 08:42 | 46.27378 | -2.87226 | 36971 ft | 447 kts | 210° |
| 2026-05-05 08:43 | 46.22035 | -2.91842 | 36965 ft | 447 kts | 210° |
| 2026-05-05 08:43 | 46.16709 | -2.96494 | 36966 ft | 447 kts | 211° |
| 2026-05-05 08:44 | 46.11382 | -3.01143 | 36965 ft | 447 kts | 211° |
| 2026-05-05 08:44 | 46.06049 | -3.05770 | 36975 ft | 447 kts | 211° |
| 2026-05-05 08:45 | 46.00710 | -3.10383 | 36975 ft | 447 kts | 211° |
| 2026-05-05 08:45 | 45.95370 | -3.14974 | 36973 ft | 447 kts | 211° |
| 2026-05-05 08:46 | 45.90025 | -3.19571 | 36978 ft | 448 kts | 211° |
| 2026-05-05 08:46 | 45.84684 | -3.24164 | 36978 ft | 448 kts | 211° |
| 2026-05-05 08:47 | 45.79336 | -3.28740 | 36980 ft | 448 kts | 211° |
| 2026-05-05 08:47 | 45.73980 | -3.33320 | 36981 ft | 448 kts | 211° |
| 2026-05-05 08:48 | 45.68624 | -3.37886 | 36980 ft | 448 kts | 211° |
| 2026-05-05 08:48 | 45.63269 | -3.42446 | 36979 ft | 448 kts | 211° |
| 2026-05-05 08:49 | 45.57941 | -3.46977 | 36986 ft | 449 kts | 211° |
| 2026-05-05 08:49 | 45.52572 | -3.51527 | 36985 ft | 449 kts | 211° |
| 2026-05-05 08:50 | 45.47197 | -3.56065 | 36983 ft | 449 kts | 211° |
| 2026-05-05 08:50 | 45.41818 | -3.60602 | 36987 ft | 450 kts | 211° |
| 2026-05-05 08:51 | 45.36431 | -3.65132 | 36988 ft | 450 kts | 211° |
| 2026-05-05 08:51 | 45.31039 | -3.69656 | 36989 ft | 450 kts | 211° |
| 2026-05-05 08:52 | 45.25639 | -3.74180 | 36986 ft | 451 kts | 211° |
| 2026-05-05 08:52 | 45.20240 | -3.78706 | 36986 ft | 451 kts | 211° |
| 2026-05-05 08:53 | 45.14833 | -3.83222 | 36990 ft | 451 kts | 211° |
| 2026-05-05 08:53 | 45.09414 | -3.87726 | 36992 ft | 451 kts | 211° |
| 2026-05-05 08:54 | 45.03999 | -3.92205 | 36995 ft | 451 kts | 211° |
| 2026-05-05 08:54 | 44.98583 | -3.96688 | 36999 ft | 451 kts | 211° |
| 2026-05-05 08:55 | 44.93174 | -4.01174 | 36999 ft | 451 kts | 211° |
| 2026-05-05 08:55 | 44.87756 | -4.05641 | 37002 ft | 451 kts | 211° |
| 2026-05-05 08:56 | 44.82337 | -4.10099 | 37002 ft | 451 kts | 211° |
| 2026-05-05 08:56 | 44.76959 | -4.14527 | 37000 ft | 451 kts | 211° |
| 2026-05-05 08:57 | 44.71545 | -4.18978 | 37001 ft | 451 kts | 211° |
| 2026-05-05 08:57 | 44.66088 | -4.23434 | 37001 ft | 451 kts | 211° |
| 2026-05-05 08:58 | 44.60698 | -4.27820 | 37001 ft | 451 kts | 211° |
| 2026-05-05 08:58 | 44.55272 | -4.32235 | 37005 ft | 451 kts | 211° |
| 2026-05-05 08:59 | 44.49850 | -4.36644 | 37013 ft | 451 kts | 211° |
| 2026-05-05 08:59 | 44.44424 | -4.41045 | 37005 ft | 451 kts | 211° |
| 2026-05-05 09:00 | 44.38998 | -4.45448 | 37007 ft | 451 kts | 212° |
| 2026-05-05 09:00 | 44.33635 | -4.49983 | 37012 ft | 450 kts | 213° |
| 2026-05-05 09:01 | 44.28300 | -4.54569 | 37012 ft | 450 kts | 213° |
| 2026-05-05 09:01 | 44.22951 | -4.59110 | 37009 ft | 450 kts | 213° |
| 2026-05-05 09:02 | 44.17586 | -4.63618 | 37020 ft | 450 kts | 213° |
| 2026-05-05 09:02 | 44.12231 | -4.68111 | 37024 ft | 449 kts | 213° |
| 2026-05-05 09:03 | 44.06885 | -4.72595 | 37027 ft | 449 kts | 213° |
| 2026-05-05 09:03 | 44.01541 | -4.77069 | 37022 ft | 448 kts | 213° |
| 2026-05-05 09:04 | 43.96205 | -4.81539 | 37018 ft | 448 kts | 213° |
| 2026-05-05 09:04 | 43.90901 | -4.85962 | 37020 ft | 448 kts | 213° |
| 2026-05-05 09:05 | 43.85560 | -4.90392 | 37020 ft | 447 kts | 213° |
| 2026-05-05 09:05 | 43.80217 | -4.94822 | 37025 ft | 447 kts | 213° |
| 2026-05-05 09:06 | 43.74874 | -4.99247 | 37016 ft | 447 kts | 213° |
| 2026-05-05 09:06 | 43.69532 | -5.03662 | 37020 ft | 448 kts | 213° |
| 2026-05-05 09:07 | 43.64176 | -5.08066 | 37022 ft | 448 kts | 213° |
| 2026-05-05 09:07 | 43.58814 | -5.12471 | 37019 ft | 449 kts | 213° |
| 2026-05-05 09:08 | 43.53454 | -5.16882 | 37021 ft | 449 kts | 213° |
| 2026-05-05 09:08 | 43.48092 | -5.21294 | 37029 ft | 449 kts | 213° |
| 2026-05-05 09:09 | 43.42726 | -5.25685 | 37033 ft | 449 kts | 213° |
| 2026-05-05 09:09 | 43.37350 | -5.30068 | 37032 ft | 449 kts | 213° |
| 2026-05-05 09:10 | 43.31974 | -5.34439 | 37035 ft | 449 kts | 213° |
| 2026-05-05 09:10 | 43.26596 | -5.38808 | 37037 ft | 449 kts | 213° |
| 2026-05-05 09:11 | 43.21212 | -5.43172 | 37039 ft | 449 kts | 213° |
| 2026-05-05 09:11 | 43.15867 | -5.47495 | 37036 ft | 449 kts | 213° |
| 2026-05-05 09:12 | 43.10489 | -5.51845 | 37036 ft | 449 kts | 213° |
| 2026-05-05 09:12 | 43.05119 | -5.56182 | 37035 ft | 449 kts | 213° |
| 2026-05-05 09:13 | 42.99737 | -5.60512 | 37031 ft | 448 kts | 213° |
| 2026-05-05 09:13 | 42.94360 | -5.64823 | 37032 ft | 448 kts | 213° |
| 2026-05-05 09:14 | 42.88981 | -5.69124 | 37029 ft | 448 kts | 213° |
| 2026-05-05 09:14 | 42.83609 | -5.73418 | 37031 ft | 448 kts | 213° |
| 2026-05-05 09:15 | 42.79146 | -5.76984 | 37033 ft | 447 kts | 213° |
| 2026-05-05 09:15 | 42.73772 | -5.81260 | 37033 ft | 447 kts | 213° |
| 2026-05-05 09:16 | 42.68397 | -5.85531 | 37036 ft | 447 kts | 213° |
| 2026-05-05 09:16 | 42.63025 | -5.89794 | 37035 ft | 447 kts | 213° |
| 2026-05-05 09:17 | 42.57652 | -5.94041 | 37032 ft | 447 kts | 213° |
| 2026-05-05 09:17 | 42.52284 | -5.98289 | 37041 ft | 447 kts | 213° |
| 2026-05-05 09:18 | 42.46911 | -6.02520 | 37042 ft | 447 kts | 213° |
| 2026-05-05 09:18 | 42.41529 | -6.06743 | 37030 ft | 447 kts | 213° |
| 2026-05-05 09:19 | 42.36159 | -6.10965 | 37041 ft | 446 kts | 213° |
| 2026-05-05 09:19 | 42.30788 | -6.15188 | 37038 ft | 446 kts | 213° |
| 2026-05-05 09:20 | 42.25417 | -6.19383 | 37037 ft | 446 kts | 213° |
| 2026-05-05 09:20 | 42.20042 | -6.23571 | 37036 ft | 446 kts | 213° |
| 2026-05-05 09:21 | 42.14697 | -6.27730 | 37044 ft | 446 kts | 214° |
| 2026-05-05 09:21 | 42.09285 | -6.31943 | 37042 ft | 446 kts | 214° |
| 2026-05-05 09:22 | 42.03940 | -6.36098 | 37046 ft | 446 kts | 214° |
| 2026-05-05 09:22 | 41.98561 | -6.40261 | 37050 ft | 446 kts | 214° |
| 2026-05-05 09:23 | 41.93180 | -6.44414 | 37047 ft | 446 kts | 214° |
| 2026-05-05 09:23 | 41.87802 | -6.48568 | 37046 ft | 446 kts | 214° |
| 2026-05-05 09:24 | 41.82423 | -6.52711 | 37056 ft | 446 kts | 214° |
| 2026-05-05 09:24 | 41.77039 | -6.56845 | 37060 ft | 446 kts | 214° |
| 2026-05-05 09:25 | 41.71656 | -6.60963 | 37066 ft | 446 kts | 214° |
| 2026-05-05 09:25 | 41.66376 | -6.65272 | 37070 ft | 443 kts | 218° |
| 2026-05-05 09:26 | 41.61350 | -6.70017 | 37074 ft | 442 kts | 220° |
| 2026-05-05 09:26 | 41.56361 | -6.74810 | 37076 ft | 442 kts | 219° |
| 2026-05-05 09:27 | 41.51311 | -6.79504 | 37083 ft | 442 kts | 218° |
| 2026-05-05 09:27 | 41.46227 | -6.84130 | 37088 ft | 442 kts | 218° |
| 2026-05-05 09:28 | 41.41141 | -6.88746 | 37083 ft | 442 kts | 218° |
| 2026-05-05 09:28 | 41.36063 | -6.93371 | 37089 ft | 442 kts | 219° |
| 2026-05-05 09:29 | 41.30991 | -6.97989 | 37093 ft | 442 kts | 219° |
| 2026-05-05 09:29 | 41.25953 | -7.02569 | 37091 ft | 441 kts | 219° |
| 2026-05-05 09:30 | 41.20888 | -7.07172 | 37099 ft | 441 kts | 219° |
| 2026-05-05 09:30 | 41.15815 | -7.11758 | 37094 ft | 441 kts | 219° |
| 2026-05-05 09:31 | 41.10745 | -7.16326 | 37098 ft | 440 kts | 219° |
| 2026-05-05 09:31 | 41.05678 | -7.20892 | 37103 ft | 440 kts | 219° |
| 2026-05-05 09:32 | 41.00618 | -7.25459 | 37102 ft | 440 kts | 219° |
| 2026-05-05 09:32 | 40.95561 | -7.30009 | 37103 ft | 439 kts | 219° |
| 2026-05-05 09:33 | 40.90504 | -7.34538 | 37098 ft | 439 kts | 219° |
| 2026-05-05 09:33 | 40.85454 | -7.39054 | 37100 ft | 438 kts | 219° |
| 2026-05-05 09:34 | 40.80408 | -7.43555 | 37097 ft | 437 kts | 219° |
| 2026-05-05 09:34 | 40.75375 | -7.48051 | 37100 ft | 437 kts | 219° |
| 2026-05-05 09:35 | 40.70373 | -7.52508 | 37101 ft | 437 kts | 219° |
| 2026-05-05 09:35 | 40.62813 | -7.59221 | 37098 ft | 437 kts | 219° |
| 2026-05-05 09:36 | 40.57774 | -7.63697 | 37099 ft | 437 kts | 220° |
| 2026-05-05 09:36 | 40.52737 | -7.68151 | 37107 ft | 437 kts | 220° |
| 2026-05-05 09:37 | 40.47693 | -7.72593 | 37110 ft | 436 kts | 220° |
| 2026-05-05 09:37 | 40.42645 | -7.77030 | 37106 ft | 436 kts | 220° |
| 2026-05-05 09:38 | 40.37613 | -7.81456 | 37115 ft | 436 kts | 220° |
| 2026-05-05 09:38 | 40.32582 | -7.85884 | 37112 ft | 434 kts | 220° |
| 2026-05-05 09:39 | 40.27562 | -7.90281 | 37117 ft | 434 kts | 220° |
| 2026-05-05 09:39 | 40.22538 | -7.94670 | 37116 ft | 434 kts | 220° |
| 2026-05-05 09:40 | 40.17518 | -7.99047 | 37119 ft | 433 kts | 220° |
| 2026-05-05 09:40 | 40.12541 | -8.03391 | 37116 ft | 433 kts | 220° |
| 2026-05-05 09:41 | 40.07538 | -8.07751 | 37119 ft | 433 kts | 220° |
| 2026-05-05 09:41 | 40.02529 | -8.12101 | 37119 ft | 432 kts | 220° |
| 2026-05-05 09:42 | 39.97533 | -8.16427 | 37124 ft | 431 kts | 220° |
| 2026-05-05 09:42 | 39.92544 | -8.20740 | 37124 ft | 430 kts | 220° |
| 2026-05-05 09:43 | 39.87564 | -8.25037 | 37122 ft | 429 kts | 220° |
| 2026-05-05 09:43 | 39.82593 | -8.29323 | 37124 ft | 428 kts | 220° |
| 2026-05-05 09:44 | 39.77628 | -8.33598 | 37122 ft | 428 kts | 220° |
| 2026-05-05 09:44 | 39.72663 | -8.37863 | 37123 ft | 428 kts | 220° |
| 2026-05-05 09:45 | 39.67697 | -8.42121 | 37122 ft | 428 kts | 220° |
| 2026-05-05 09:45 | 39.62738 | -8.46370 | 37123 ft | 427 kts | 220° |
| 2026-05-05 09:46 | 39.57778 | -8.50616 | 37120 ft | 427 kts | 220° |
| 2026-05-05 09:46 | 39.52845 | -8.54823 | 37122 ft | 427 kts | 220° |
| 2026-05-05 09:47 | 39.47886 | -8.59044 | 37123 ft | 426 kts | 219° |
| 2026-05-05 09:47 | 39.42934 | -8.63257 | 37124 ft | 426 kts | 219° |
| 2026-05-05 09:48 | 39.37983 | -8.67467 | 37127 ft | 426 kts | 219° |
| 2026-05-05 09:48 | 39.33033 | -8.71659 | 37123 ft | 425 kts | 219° |
| 2026-05-05 09:49 | 39.28083 | -8.75840 | 37125 ft | 425 kts | 219° |
| 2026-05-05 09:49 | 39.23135 | -8.80017 | 37125 ft | 425 kts | 219° |
| 2026-05-05 09:50 | 39.18197 | -8.84184 | 37130 ft | 424 kts | 219° |
| 2026-05-05 09:50 | 39.13253 | -8.88340 | 37130 ft | 424 kts | 219° |
| 2026-05-05 09:51 | 39.08312 | -8.92486 | 37137 ft | 424 kts | 219° |
| 2026-05-05 09:51 | 39.03377 | -8.96629 | 37133 ft | 423 kts | 219° |
| 2026-05-05 09:52 | 38.98450 | -9.00758 | 37140 ft | 423 kts | 219° |
| 2026-05-05 09:52 | 38.93551 | -9.04847 | 37137 ft | 422 kts | 219° |
| 2026-05-05 09:53 | 38.88628 | -9.08947 | 37143 ft | 421 kts | 219° |
| 2026-05-05 09:53 | 38.83714 | -9.13041 | 37141 ft | 421 kts | 219° |
| 2026-05-05 09:54 | 38.78812 | -9.17127 | 37139 ft | 420 kts | 219° |
| 2026-05-05 09:54 | 38.73903 | -9.21206 | 37141 ft | 420 kts | 219° |
| 2026-05-05 09:55 | 38.68991 | -9.25277 | 37145 ft | 420 kts | 219° |
| 2026-05-05 09:55 | 38.64080 | -9.29337 | 37149 ft | 420 kts | 219° |
| 2026-05-05 09:56 | 38.59180 | -9.33389 | 37150 ft | 419 kts | 219° |
| 2026-05-05 09:56 | 38.54283 | -9.37434 | 37151 ft | 419 kts | 219° |
| 2026-05-05 09:57 | 38.49385 | -9.41463 | 37156 ft | 419 kts | 219° |
| 2026-05-05 09:57 | 38.44489 | -9.45472 | 37154 ft | 418 kts | 219° |
| 2026-05-05 09:58 | 38.39607 | -9.49483 | 37157 ft | 417 kts | 219° |
| 2026-05-05 09:58 | 38.34725 | -9.53489 | 37159 ft | 417 kts | 219° |
| 2026-05-05 09:59 | 38.29845 | -9.57482 | 37158 ft | 417 kts | 219° |
| 2026-05-05 09:59 | 38.24975 | -9.61461 | 37156 ft | 416 kts | 219° |
| 2026-05-05 10:00 | 38.20101 | -9.65430 | 37156 ft | 416 kts | 218° |
| 2026-05-05 10:00 | 38.15265 | -9.69362 | 37163 ft | 415 kts | 218° |
| 2026-05-05 10:01 | 38.10397 | -9.73320 | 37160 ft | 415 kts | 218° |
| 2026-05-05 10:01 | 38.05535 | -9.77275 | 37156 ft | 415 kts | 218° |
| 2026-05-05 10:02 | 38.00668 | -9.81217 | 37168 ft | 415 kts | 218° |
| 2026-05-05 10:02 | 37.95815 | -9.85184 | 37171 ft | 415 kts | 219° |
| 2026-05-05 10:03 | 37.90994 | -9.89188 | 37162 ft | 414 kts | 219° |
| 2026-05-05 10:03 | 37.86172 | -9.93188 | 37158 ft | 414 kts | 219° |
| 2026-05-05 10:04 | 37.81338 | -9.97165 | 37160 ft | 415 kts | 218° |
| 2026-05-05 10:04 | 37.76493 | -10.01146 | 37161 ft | 415 kts | 218° |
| 2026-05-05 10:05 | 37.71655 | -10.05130 | 37162 ft | 415 kts | 218° |
| 2026-05-05 10:05 | 37.66812 | -10.09115 | 37167 ft | 416 kts | 218° |
| 2026-05-05 10:06 | 37.61958 | -10.13086 | 37168 ft | 416 kts | 218° |
| 2026-05-05 10:06 | 37.57102 | -10.17052 | 37168 ft | 416 kts | 218° |
| 2026-05-05 10:07 | 37.53068 | -10.20346 | 37169 ft | 415 kts | 218° |
| 2026-05-05 10:07 | 37.47433 | -10.24940 | 37169 ft | 415 kts | 218° |
| 2026-05-05 10:08 | 37.42585 | -10.28879 | 37167 ft | 415 kts | 218° |
| 2026-05-05 10:08 | 37.38527 | -10.32178 | 37171 ft | 415 kts | 217° |
| 2026-05-05 10:09 | 37.33710 | -10.36089 | 37170 ft | 415 kts | 217° |
| 2026-05-05 10:09 | 37.28826 | -10.40048 | 37170 ft | 415 kts | 217° |
| 2026-05-05 10:10 | 37.23999 | -10.43956 | 37169 ft | 416 kts | 217° |
| 2026-05-05 10:10 | 37.19136 | -10.47885 | 37169 ft | 416 kts | 217° |
| 2026-05-05 10:11 | 37.14271 | -10.51802 | 37168 ft | 416 kts | 217° |
| 2026-05-05 10:11 | 37.09401 | -10.55714 | 37163 ft | 416 kts | 217° |
| 2026-05-05 10:12 | 37.04529 | -10.59628 | 37158 ft | 416 kts | 217° |
| 2026-05-05 10:12 | 36.99656 | -10.63537 | 37154 ft | 416 kts | 217° |
| 2026-05-05 10:13 | 36.94780 | -10.67446 | 37152 ft | 416 kts | 217° |
| 2026-05-05 10:13 | 36.89902 | -10.71349 | 37147 ft | 417 kts | 217° |
| 2026-05-05 10:14 | 36.85017 | -10.75247 | 37148 ft | 417 kts | 217° |
| 2026-05-05 10:14 | 36.80124 | -10.79153 | 37149 ft | 417 kts | 217° |
| 2026-05-05 10:15 | 36.75234 | -10.83047 | 37153 ft | 417 kts | 217° |
| 2026-05-05 10:15 | 36.70337 | -10.86939 | 37160 ft | 417 kts | 217° |
| 2026-05-05 10:16 | 36.65443 | -10.90828 | 37161 ft | 417 kts | 216° |
| 2026-05-05 10:16 | 36.60582 | -10.94688 | 37172 ft | 417 kts | 216° |
| 2026-05-05 10:17 | 36.55690 | -10.98563 | 37179 ft | 417 kts | 216° |
| 2026-05-05 10:17 | 36.50799 | -11.02429 | 37183 ft | 416 kts | 216° |
| 2026-05-05 10:18 | 36.45908 | -11.06286 | 37183 ft | 416 kts | 216° |
| 2026-05-05 10:18 | 36.41027 | -11.10132 | 37188 ft | 415 kts | 216° |
| 2026-05-05 10:19 | 36.36144 | -11.13973 | 37183 ft | 415 kts | 216° |
| 2026-05-05 10:19 | 36.31264 | -11.17803 | 37184 ft | 415 kts | 216° |
| 2026-05-05 10:20 | 36.26389 | -11.21627 | 37184 ft | 415 kts | 216° |
| 2026-05-05 10:20 | 36.21515 | -11.25449 | 37182 ft | 414 kts | 216° |
| 2026-05-05 10:21 | 36.16674 | -11.29243 | 37182 ft | 414 kts | 216° |
| 2026-05-05 10:21 | 36.11801 | -11.33042 | 37177 ft | 414 kts | 216° |
| 2026-05-05 10:22 | 36.06922 | -11.36836 | 37175 ft | 414 kts | 216° |
| 2026-05-05 10:22 | 36.02043 | -11.40631 | 37169 ft | 414 kts | 216° |
| 2026-05-05 10:23 | 35.97164 | -11.44428 | 37169 ft | 415 kts | 215° |
| 2026-05-05 10:23 | 35.92019 | -11.47747 | 37166 ft | 418 kts | 211° |
| 2026-05-05 10:24 | 35.86834 | -11.50972 | 37165 ft | 418 kts | 211° |
| 2026-05-05 10:24 | 35.81675 | -11.54185 | 37164 ft | 418 kts | 211° |
| 2026-05-05 10:25 | 35.76484 | -11.57419 | 37165 ft | 419 kts | 211° |
| 2026-05-05 10:25 | 35.71281 | -11.60653 | 37163 ft | 419 kts | 211° |
| 2026-05-05 10:26 | 35.66078 | -11.63892 | 37170 ft | 419 kts | 211° |
| 2026-05-05 10:26 | 35.60865 | -11.67126 | 37170 ft | 420 kts | 211° |
| 2026-05-05 10:27 | 35.55649 | -11.70359 | 37171 ft | 420 kts | 211° |
| 2026-05-05 10:27 | 35.50422 | -11.73583 | 37167 ft | 420 kts | 211° |
| 2026-05-05 10:28 | 35.45400 | -11.76692 | 37163 ft | 421 kts | 211° |
| 2026-05-05 10:28 | 35.40175 | -11.79921 | 37172 ft | 421 kts | 211° |
| 2026-05-05 10:29 | 35.34944 | -11.83137 | 37172 ft | 421 kts | 210° |
| 2026-05-05 10:29 | 35.29703 | -11.86353 | 37177 ft | 421 kts | 210° |
| 2026-05-05 10:30 | 35.24467 | -11.89565 | 37174 ft | 421 kts | 210° |
| 2026-05-05 10:30 | 35.19231 | -11.92780 | 37168 ft | 421 kts | 210° |
| 2026-05-05 10:31 | 35.13995 | -11.95989 | 37166 ft | 421 kts | 210° |
| 2026-05-05 10:31 | 35.08751 | -11.99197 | 37178 ft | 421 kts | 210° |
| 2026-05-05 10:32 | 35.03542 | -12.02374 | 37164 ft | 421 kts | 210° |
| 2026-05-05 10:32 | 34.98294 | -12.05568 | 37175 ft | 421 kts | 210° |
| 2026-05-05 10:33 | 34.93048 | -12.08763 | 37176 ft | 421 kts | 210° |
| 2026-05-05 10:33 | 34.87801 | -12.11953 | 37173 ft | 421 kts | 210° |
| 2026-05-05 10:34 | 34.82555 | -12.15136 | 37174 ft | 421 kts | 210° |
| 2026-05-05 10:34 | 34.77311 | -12.18320 | 37172 ft | 421 kts | 210° |
| 2026-05-05 10:35 | 34.72066 | -12.21494 | 37169 ft | 421 kts | 210° |
| 2026-05-05 10:35 | 34.66813 | -12.24665 | 37167 ft | 421 kts | 210° |
| 2026-05-05 10:36 | 34.61563 | -12.27832 | 37168 ft | 421 kts | 210° |
| 2026-05-05 10:36 | 34.56317 | -12.31007 | 37164 ft | 421 kts | 210° |
| 2026-05-05 10:37 | 34.51068 | -12.34178 | 37165 ft | 422 kts | 210° |
| 2026-05-05 10:37 | 34.45806 | -12.37329 | 37164 ft | 422 kts | 209° |
| 2026-05-05 10:38 | 34.40540 | -12.40479 | 37169 ft | 422 kts | 210° |
| 2026-05-05 10:38 | 34.35316 | -12.43607 | 37165 ft | 422 kts | 210° |
| 2026-05-05 10:39 | 34.30054 | -12.46754 | 37169 ft | 422 kts | 210° |
| 2026-05-05 10:39 | 34.24797 | -12.49896 | 37170 ft | 422 kts | 210° |
| 2026-05-05 10:40 | 34.19536 | -12.53042 | 37171 ft | 422 kts | 210° |
| 2026-05-05 10:40 | 34.14281 | -12.56179 | 37173 ft | 422 kts | 210° |
| 2026-05-05 10:41 | 34.09019 | -12.59301 | 37166 ft | 421 kts | 209° |
| 2026-05-05 10:41 | 34.03754 | -12.62420 | 37169 ft | 421 kts | 209° |
| 2026-05-05 10:42 | 33.95875 | -12.67101 | 37169 ft | 421 kts | 209° |
| 2026-05-05 10:43 | 33.90617 | -12.70218 | 37166 ft | 421 kts | 209° |
| 2026-05-05 10:43 | 33.85363 | -12.73329 | 37166 ft | 421 kts | 209° |
| 2026-05-05 10:44 | 33.80110 | -12.76432 | 37164 ft | 421 kts | 209° |
| 2026-05-05 10:44 | 33.74852 | -12.79526 | 37160 ft | 421 kts | 209° |
| 2026-05-05 10:45 | 33.69592 | -12.82612 | 37161 ft | 421 kts | 209° |
| 2026-05-05 10:45 | 33.64344 | -12.85711 | 37158 ft | 421 kts | 209° |
| 2026-05-05 10:46 | 33.59120 | -12.88787 | 37161 ft | 421 kts | 209° |
| 2026-05-05 10:46 | 33.53829 | -12.91884 | 37158 ft | 420 kts | 209° |
| 2026-05-05 10:47 | 33.48609 | -12.94938 | 37154 ft | 420 kts | 209° |
| 2026-05-05 10:47 | 33.43355 | -12.98010 | 37155 ft | 420 kts | 209° |
| 2026-05-05 10:48 | 33.38095 | -13.01083 | 37156 ft | 421 kts | 209° |
| 2026-05-05 10:48 | 33.32832 | -13.04149 | 37158 ft | 421 kts | 209° |
| 2026-05-05 10:49 | 33.27568 | -13.07216 | 37153 ft | 420 kts | 209° |
| 2026-05-05 10:49 | 33.22312 | -13.10274 | 37155 ft | 420 kts | 209° |
| 2026-05-05 10:50 | 33.17053 | -13.13333 | 37153 ft | 421 kts | 209° |
| 2026-05-05 10:50 | 33.11782 | -13.16389 | 37152 ft | 421 kts | 209° |
| 2026-05-05 10:51 | 33.06510 | -13.19444 | 37152 ft | 421 kts | 209° |
| 2026-05-05 10:51 | 33.01236 | -13.22503 | 37154 ft | 422 kts | 209° |
| 2026-05-05 10:52 | 32.95992 | -13.25538 | 37151 ft | 422 kts | 209° |
| 2026-05-05 10:52 | 32.90713 | -13.28584 | 37150 ft | 422 kts | 209° |
| 2026-05-05 10:53 | 32.85437 | -13.31623 | 37158 ft | 422 kts | 209° |
| 2026-05-05 10:53 | 32.80160 | -13.34661 | 37162 ft | 421 kts | 209° |
| 2026-05-05 10:54 | 32.74888 | -13.37689 | 37163 ft | 420 kts | 209° |
| 2026-05-05 10:54 | 32.69625 | -13.40714 | 37160 ft | 420 kts | 209° |
| 2026-05-05 10:55 | 32.64362 | -13.43728 | 37162 ft | 419 kts | 209° |
| 2026-05-05 10:55 | 32.59109 | -13.46736 | 37161 ft | 419 kts | 209° |
| 2026-05-05 10:56 | 32.53865 | -13.49734 | 37159 ft | 418 kts | 209° |
| 2026-05-05 10:56 | 32.48629 | -13.52726 | 37161 ft | 417 kts | 210° |
| 2026-05-05 10:57 | 32.43397 | -13.55705 | 37165 ft | 417 kts | 210° |
| 2026-05-05 10:57 | 32.38174 | -13.58680 | 37156 ft | 416 kts | 210° |
| 2026-05-05 10:58 | 32.32990 | -13.61630 | 37153 ft | 416 kts | 210° |
| 2026-05-05 10:58 | 32.27783 | -13.64589 | 37154 ft | 415 kts | 210° |
| 2026-05-05 10:59 | 32.22585 | -13.67537 | 37157 ft | 414 kts | 210° |
| 2026-05-05 10:59 | 32.17401 | -13.70480 | 37158 ft | 413 kts | 210° |
| 2026-05-05 11:00 | 32.12226 | -13.73416 | 37156 ft | 412 kts | 210° |
| 2026-05-05 11:00 | 32.07060 | -13.76332 | 37154 ft | 411 kts | 210° |
| 2026-05-05 11:01 | 32.01901 | -13.79231 | 37154 ft | 410 kts | 210° |
| 2026-05-05 11:01 | 31.96762 | -13.82131 | 37159 ft | 409 kts | 211° |
| 2026-05-05 11:02 | 31.91638 | -13.85018 | 37158 ft | 408 kts | 211° |
| 2026-05-05 11:02 | 31.87385 | -13.87409 | 37157 ft | 407 kts | 211° |
| 2026-05-05 11:03 | 31.82284 | -13.90275 | 37142 ft | 406 kts | 211° |
| 2026-05-05 11:03 | 31.77193 | -13.93137 | 37145 ft | 405 kts | 211° |
| 2026-05-05 11:04 | 31.71288 | -13.96446 | 37144 ft | 404 kts | 211° |
| 2026-05-05 11:04 | 31.67042 | -13.98816 | 37146 ft | 403 kts | 211° |
| 2026-05-05 11:05 | 31.61987 | -14.01643 | 37146 ft | 402 kts | 211° |
| 2026-05-05 11:05 | 31.56123 | -14.04920 | 37140 ft | 401 kts | 211° |
| 2026-05-05 11:06 | 31.51898 | -14.07276 | 37140 ft | 401 kts | 211° |
| 2026-05-05 11:06 | 31.46869 | -14.10080 | 37140 ft | 400 kts | 211° |
| 2026-05-05 11:07 | 31.41845 | -14.12876 | 37142 ft | 399 kts | 211° |
| 2026-05-05 11:07 | 31.36864 | -14.15639 | 37137 ft | 398 kts | 211° |
| 2026-05-05 11:08 | 31.31862 | -14.18416 | 37140 ft | 397 kts | 212° |
| 2026-05-05 11:08 | 31.26870 | -14.21192 | 37142 ft | 397 kts | 212° |
| 2026-05-05 11:09 | 31.21893 | -14.23954 | 37145 ft | 396 kts | 212° |
| 2026-05-05 11:09 | 31.16921 | -14.26698 | 37139 ft | 395 kts | 212° |
| 2026-05-05 11:10 | 31.11965 | -14.29438 | 37141 ft | 394 kts | 212° |
| 2026-05-05 11:10 | 31.07022 | -14.32159 | 37139 ft | 392 kts | 212° |
| 2026-05-05 11:11 | 31.02101 | -14.34873 | 37139 ft | 391 kts | 212° |
| 2026-05-05 11:11 | 30.97191 | -14.37584 | 37138 ft | 390 kts | 212° |
| 2026-05-05 11:12 | 30.92295 | -14.40269 | 37136 ft | 388 kts | 212° |
| 2026-05-05 11:12 | 30.87235 | -14.42563 | 37135 ft | 394 kts | 205° |
| 2026-05-05 11:13 | 30.82017 | -14.44481 | 37136 ft | 392 kts | 206° |
| 2026-05-05 11:13 | 30.76823 | -14.46401 | 37133 ft | 391 kts | 206° |
| 2026-05-05 11:14 | 30.71639 | -14.48312 | 37129 ft | 390 kts | 206° |
| 2026-05-05 11:14 | 30.66499 | -14.50203 | 37123 ft | 390 kts | 206° |
| 2026-05-05 11:15 | 30.61339 | -14.52101 | 37127 ft | 388 kts | 206° |
| 2026-05-05 11:15 | 30.56196 | -14.53995 | 37124 ft | 387 kts | 206° |
| 2026-05-05 11:16 | 30.51061 | -14.55873 | 37135 ft | 386 kts | 207° |
| 2026-05-05 11:16 | 30.45952 | -14.57746 | 37128 ft | 385 kts | 207° |
| 2026-05-05 11:17 | 30.40856 | -14.59620 | 37127 ft | 383 kts | 207° |
| 2026-05-05 11:17 | 30.35781 | -14.61486 | 37123 ft | 382 kts | 207° |
| 2026-05-05 11:18 | 30.30714 | -14.63330 | 37120 ft | 381 kts | 207° |
| 2026-05-05 11:18 | 30.25653 | -14.65165 | 37114 ft | 381 kts | 207° |
| 2026-05-05 11:19 | 30.20608 | -14.67011 | 37117 ft | 380 kts | 207° |
| 2026-05-05 11:19 | 30.15567 | -14.68847 | 37112 ft | 380 kts | 207° |
| 2026-05-05 11:20 | 30.10534 | -14.70679 | 37113 ft | 379 kts | 207° |
| 2026-05-05 11:20 | 30.05506 | -14.72505 | 37113 ft | 379 kts | 207° |
| 2026-05-05 11:21 | 30.00516 | -14.74310 | 37116 ft | 378 kts | 208° |
| 2026-05-05 11:21 | 29.95497 | -14.76124 | 37111 ft | 378 kts | 208° |
| 2026-05-05 11:22 | 29.90484 | -14.77940 | 37116 ft | 377 kts | 208° |
| 2026-05-05 11:22 | 29.85482 | -14.79761 | 37117 ft | 377 kts | 208° |
| 2026-05-05 11:23 | 29.80478 | -14.81582 | 37114 ft | 377 kts | 208° |
| 2026-05-05 11:23 | 29.75476 | -14.83393 | 37113 ft | 377 kts | 208° |
| 2026-05-05 11:24 | 29.70476 | -14.85191 | 37108 ft | 376 kts | 208° |
| 2026-05-05 11:24 | 29.65482 | -14.86986 | 37106 ft | 376 kts | 208° |
| 2026-05-05 11:25 | 29.60491 | -14.88789 | 37104 ft | 376 kts | 208° |
| 2026-05-05 11:25 | 29.55496 | -14.90585 | 37101 ft | 376 kts | 208° |
| 2026-05-05 11:26 | 29.50503 | -14.92380 | 37012 ft | 377 kts | 208° |
| 2026-05-05 11:26 | 29.48010 | -14.93280 | 36716 ft | 376 kts | 208° |
| 2026-05-05 11:26 | 29.45511 | -14.94180 | 36469 ft | 377 kts | 208° |
| 2026-05-05 11:26 | 29.43006 | -14.95079 | 36212 ft | 378 kts | 208° |
| 2026-05-05 11:27 | 29.40496 | -14.95978 | 35955 ft | 378 kts | 208° |
| 2026-05-05 11:27 | 29.37980 | -14.96879 | 35708 ft | 379 kts | 207° |
| 2026-05-05 11:27 | 29.35463 | -14.97780 | 35461 ft | 379 kts | 207° |
| 2026-05-05 11:27 | 29.32975 | -14.98671 | 35220 ft | 380 kts | 207° |
| 2026-05-05 11:28 | 29.30417 | -14.99583 | 34972 ft | 380 kts | 207° |
| 2026-05-05 11:28 | 29.27886 | -15.00484 | 34736 ft | 381 kts | 207° |
| 2026-05-05 11:28 | 29.25351 | -15.01387 | 34495 ft | 382 kts | 207° |
| 2026-05-05 11:28 | 29.22849 | -15.02281 | 34257 ft | 382 kts | 207° |
| 2026-05-05 11:29 | 29.20307 | -15.03189 | 34009 ft | 383 kts | 207° |
| 2026-05-05 11:29 | 29.17768 | -15.04098 | 33738 ft | 383 kts | 207° |
| 2026-05-05 11:29 | 29.15212 | -15.05012 | 32965 ft | 385 kts | 207° |
| 2026-05-05 11:29 | 29.12654 | -15.05922 | 32131 ft | 385 kts | 206° |
| 2026-05-05 11:30 | 29.10089 | -15.06831 | 31302 ft | 386 kts | 206° |
| 2026-05-05 11:30 | 29.07526 | -15.07739 | 30425 ft | 387 kts | 205° |
| 2026-05-05 11:30 | 29.04944 | -15.08660 | 29384 ft | 390 kts | 205° |
| 2026-05-05 11:30 | 29.02346 | -15.09585 | 28505 ft | 390 kts | 205° |
| 2026-05-05 11:31 | 28.99786 | -15.10488 | 28000 ft | 381 kts | 205° |
| 2026-05-05 11:31 | 28.97270 | -15.11373 | 27409 ft | 376 kts | 205° |
| 2026-05-05 11:31 | 28.94787 | -15.12248 | 26824 ft | 371 kts | 205° |
| 2026-05-05 11:31 | 28.92332 | -15.13118 | 26233 ft | 367 kts | 205° |
| 2026-05-05 11:32 | 28.89901 | -15.13983 | 25664 ft | 364 kts | 205° |
| 2026-05-05 11:32 | 28.87498 | -15.14837 | 25113 ft | 360 kts | 205° |
| 2026-05-05 11:32 | 28.85114 | -15.15686 | 24558 ft | 358 kts | 205° |
| 2026-05-05 11:32 | 28.82750 | -15.16530 | 24009 ft | 355 kts | 205° |
| 2026-05-05 11:33 | 28.80396 | -15.17366 | 23437 ft | 353 kts | 204° |
| 2026-05-05 11:33 | 28.78054 | -15.18192 | 22867 ft | 350 kts | 204° |
| 2026-05-05 11:33 | 28.75731 | -15.19009 | 22374 ft | 348 kts | 204° |
| 2026-05-05 11:33 | 28.73428 | -15.19822 | 21873 ft | 346 kts | 204° |
| 2026-05-05 11:34 | 28.71139 | -15.20632 | 21406 ft | 344 kts | 204° |
| 2026-05-05 11:34 | 28.68864 | -15.21438 | 20937 ft | 342 kts | 204° |
| 2026-05-05 11:34 | 28.66596 | -15.22239 | 20487 ft | 340 kts | 204° |
| 2026-05-05 11:34 | 28.64338 | -15.23036 | 20033 ft | 339 kts | 204° |
| 2026-05-05 11:35 | 28.62089 | -15.23829 | 19647 ft | 338 kts | 204° |
| 2026-05-05 11:35 | 28.59847 | -15.24621 | 19252 ft | 337 kts | 204° |
| 2026-05-05 11:35 | 28.57609 | -15.25409 | 18862 ft | 336 kts | 204° |
| 2026-05-05 11:35 | 28.55404 | -15.26183 | 18476 ft | 336 kts | 204° |
| 2026-05-05 11:36 | 28.53175 | -15.26966 | 18062 ft | 335 kts | 204° |
| 2026-05-05 11:36 | 28.50953 | -15.27749 | 17667 ft | 334 kts | 204° |
| 2026-05-05 11:36 | 28.48737 | -15.28530 | 17277 ft | 333 kts | 203° |
| 2026-05-05 11:36 | 28.46530 | -15.29305 | 16892 ft | 331 kts | 203° |
| 2026-05-05 11:37 | 28.44333 | -15.30079 | 16487 ft | 330 kts | 203° |
| 2026-05-05 11:37 | 28.42138 | -15.30817 | 16168 ft | 330 kts | 198° |
| 2026-05-05 11:37 | 28.39811 | -15.30941 | 16027 ft | 341 kts | 179° |
| 2026-05-05 11:37 | 28.37552 | -15.30186 | 15772 ft | 333 kts | 167° |
| 2026-05-05 11:38 | 28.35449 | -15.29252 | 15521 ft | 318 kts | 167° |
| 2026-05-05 11:38 | 28.33403 | -15.28332 | 15279 ft | 314 kts | 167° |
| 2026-05-05 11:38 | 28.31385 | -15.27428 | 15040 ft | 311 kts | 167° |
| 2026-05-05 11:38 | 28.29378 | -15.26536 | 14809 ft | 309 kts | 167° |
| 2026-05-05 11:39 | 28.27371 | -15.25650 | 14564 ft | 308 kts | 167° |
| 2026-05-05 11:39 | 28.25375 | -15.24772 | 14326 ft | 307 kts | 167° |
| 2026-05-05 11:39 | 28.23384 | -15.23894 | 14091 ft | 307 kts | 167° |
| 2026-05-05 11:39 | 28.21399 | -15.23021 | 13853 ft | 306 kts | 167° |
| 2026-05-05 11:40 | 28.19419 | -15.22150 | 13593 ft | 305 kts | 167° |
| 2026-05-05 11:40 | 28.17442 | -15.21281 | 13334 ft | 304 kts | 167° |
| 2026-05-05 11:40 | 28.15469 | -15.20413 | 13079 ft | 303 kts | 166° |
| 2026-05-05 11:40 | 28.13508 | -15.19549 | 12817 ft | 302 kts | 166° |
| 2026-05-05 11:41 | 28.11550 | -15.18687 | 12569 ft | 301 kts | 166° |
| 2026-05-05 11:41 | 28.09627 | -15.17841 | 12323 ft | 300 kts | 166° |
| 2026-05-05 11:41 | 28.07689 | -15.16988 | 12072 ft | 298 kts | 166° |
| 2026-05-05 11:41 | 28.05758 | -15.16140 | 11824 ft | 297 kts | 165° |
| 2026-05-05 11:42 | 28.03833 | -15.15296 | 11579 ft | 296 kts | 165° |
| 2026-05-05 11:42 | 28.01915 | -15.14455 | 11335 ft | 295 kts | 165° |
| 2026-05-05 11:42 | 28.00000 | -15.13616 | 11096 ft | 294 kts | 165° |
| 2026-05-05 11:42 | 27.98094 | -15.12780 | 10854 ft | 293 kts | 165° |
| 2026-05-05 11:43 | 27.96194 | -15.11945 | 10618 ft | 292 kts | 164° |
| 2026-05-05 11:43 | 27.94300 | -15.11113 | 10380 ft | 291 kts | 164° |
| 2026-05-05 11:43 | 27.92414 | -15.10287 | 10138 ft | 291 kts | 164° |
| 2026-05-05 11:43 | 27.90531 | -15.09461 | 9966 ft | 289 kts | 163° |
| 2026-05-05 11:44 | 27.88656 | -15.08640 | 9835 ft | 289 kts | 163° |
| 2026-05-05 11:44 | 27.86779 | -15.07820 | 9704 ft | 289 kts | 163° |
| 2026-05-05 11:44 | 27.84908 | -15.07005 | 9577 ft | 288 kts | 163° |
| 2026-05-05 11:44 | 27.83035 | -15.06189 | 9442 ft | 288 kts | 163° |
| 2026-05-05 11:45 | 27.81164 | -15.05373 | 9322 ft | 288 kts | 163° |
| 2026-05-05 11:45 | 27.79300 | -15.04556 | 9191 ft | 287 kts | 163° |
| 2026-05-05 11:45 | 27.77421 | -15.03808 | 9057 ft | 284 kts | 173° |
| 2026-05-05 11:45 | 27.75488 | -15.03764 | 8927 ft | 276 kts | 194° |
| 2026-05-05 11:46 | 27.73736 | -15.04546 | 8805 ft | 270 kts | 216° |
| 2026-05-05 11:46 | 27.72396 | -15.05997 | 8678 ft | 268 kts | 236° |
| 2026-05-05 11:46 | 27.71635 | -15.07875 | 8556 ft | 269 kts | 256° |
| 2026-05-05 11:46 | 27.71545 | -15.09976 | 8437 ft | 271 kts | 277° |
| 2026-05-05 11:47 | 27.71912 | -15.12071 | 8310 ft | 273 kts | 279° |
| 2026-05-05 11:47 | 27.72294 | -15.14166 | 8194 ft | 273 kts | 279° |
| 2026-05-05 11:47 | 27.72669 | -15.16224 | 8063 ft | 258 kts | 279° |
| 2026-05-05 11:47 | 27.73019 | -15.18137 | 7947 ft | 243 kts | 279° |
| 2026-05-05 11:48 | 27.73697 | -15.21881 | 7199 ft | 245 kts | 280° |
| 2026-05-05 11:48 | 27.74032 | -15.23749 | 6943 ft | 241 kts | 279° |
| 2026-05-05 11:48 | 27.74365 | -15.25610 | 6435 ft | 241 kts | 280° |
| 2026-05-05 11:49 | 27.74692 | -15.27449 | 5933 ft | 238 kts | 280° |
| 2026-05-05 11:49 | 27.75016 | -15.29279 | 5507 ft | 237 kts | 281° |
| 2026-05-05 11:49 | 27.75342 | -15.31117 | 5112 ft | 240 kts | 281° |
| 2026-05-05 11:49 | 27.75675 | -15.32977 | 4697 ft | 243 kts | 282° |
| 2026-05-05 11:50 | 27.76011 | -15.34856 | 4297 ft | 244 kts | 282° |
| 2026-05-05 11:50 | 27.76343 | -15.36716 | 3981 ft | 242 kts | 282° |
| 2026-05-05 11:50 | 27.76678 | -15.38590 | 3625 ft | 241 kts | 283° |
| 2026-05-05 11:50 | 27.77007 | -15.40431 | 3391 ft | 237 kts | 283° |
| 2026-05-05 11:51 | 27.77333 | -15.42246 | 3214 ft | 235 kts | 284° |
| 2026-05-05 11:51 | 27.78029 | -15.43854 | 3076 ft | 224 kts | 319° |
| 2026-05-05 11:51 | 27.79381 | -15.44528 | 2879 ft | 213 kts | 0° |
| 2026-05-05 11:51 | 27.80816 | -15.44132 | 2588 ft | 216 kts | 22° |
| 2026-05-05 11:52 | 27.82214 | -15.43506 | 2459 ft | 214 kts | 23° |
| 2026-05-05 11:52 | 27.83597 | -15.42862 | 2105 ft | 218 kts | 22° |
| 2026-05-05 11:52 | 27.84966 | -15.42193 | 1637 ft | 207 kts | 23° |
| 2026-05-05 11:52 | 27.86257 | -15.41612 | 1348 ft | 195 kts | 20° |
| 2026-05-05 11:53 | 27.87498 | -15.41136 | 1173 ft | 180 kts | 19° |
| 2026-05-05 11:53 | 27.88644 | -15.40666 | 865 ft | 171 kts | 22° |
| 2026-05-05 11:53 | 27.89688 | -15.40183 | 665 ft | 155 kts | 24° |
| 2026-05-05 11:53 | 27.90658 | -15.39763 | 422 ft | 143 kts | 21° |
| 2026-05-05 11:54 | 27.91566 | -15.39369 | 172 ft | 136 kts | 22° |
| 2026-05-05 11:54 | 27.92422 | -15.38992 | 81 ft | 123 kts | 21° |
| 2026-05-05 11:54 | 27.93136 | -15.38682 | 63 ft | 97 kts | 21° |
| 2026-05-05 11:54 | 27.93612 | -15.38472 | 56 ft | 49 kts | 22° |
| 2026-05-05 11:55 | 27.93850 | -15.38426 | 54 ft | 30 kts | 360° |
| 2026-05-05 11:55 | 27.94019 | -15.38460 | 49 ft | 21 kts | 329° |
| 2026-05-05 11:55 | 27.94070 | -15.38553 | 48 ft | 12 kts | 293° |
| 2026-05-05 11:55 | 27.94047 | -15.38622 | 49 ft | 9 kts | 217° |
| 2026-05-05 11:56 | 27.94014 | -15.38643 | 49 ft | 7 kts | 202° |
| 2026-05-05 11:56 | 27.93975 | -15.38664 | 48 ft | 5 kts | 206° |
| 2026-05-05 11:56 | 27.93964 | -15.38689 | 50 ft | 3 kts | 262° |
| 2026-05-05 11:56 | 27.93970 | -15.38718 | 50 ft | 5 kts | 291° |
| 2026-05-05 11:57 | 27.93981 | -15.38748 | 50 ft | 3 kts | 291° |
| 2026-05-05 11:57 | 27.93985 | -15.38759 | 47 ft | 0 kts | 292° |
| 2026-05-05 11:57 | 27.93985 | -15.38760 | 47 ft | 0 kts | 292° |